CPX771 Details

Departure: Liège Airport (EBLG)
Arrival: Tallinn Airport (EETN) at N/A
Route: LNO5E LNO M170 NVO UZ706 PIXID GESKA P605 MALIV M611 KOLJA M611 LONSA
Notes:


Current Weather Information
EBLG 251120Z VRB02KT CAVOK 28/11 Q1019 NOSIG
EETN 251120Z 31007KT 280V350 CAVOK 20/13 Q1028 NOSIG